sensor_id;sensor_type;location;lat;lon;timestamp;pressure;altitude;pressure_sealevel;temperature;humidity
35676;BME280;21790;42.668;23.298;2022-09-30T00:01:33;94379.63;;;21.48;55.94
35676;BME280;21790;42.668;23.298;2022-09-30T00:04:00;94389.03;;;21.63;55.59
35676;BME280;21790;42.668;23.298;2022-09-30T00:06:28;94375.59;;;21.69;55.21
35676;BME280;21790;42.668;23.298;2022-09-30T00:08:53;94382.00;;;21.70;55.49
35676;BME280;21790;42.668;23.298;2022-09-30T00:11:24;94389.34;;;21.60;55.65
35676;BME280;21790;42.668;23.298;2022-09-30T00:13:50;94390.09;;;21.60;55.75
35676;BME280;21790;42.668;23.298;2022-09-30T00:16:16;94377.03;;;21.37;56.00
35676;BME280;21790;42.668;23.298;2022-09-30T00:18:42;94381.25;;;21.43;55.91
35676;BME280;21790;42.668;23.298;2022-09-30T00:21:09;94384.03;;;21.30;56.29
35676;BME280;21790;42.668;23.298;2022-09-30T00:23:35;94383.91;;;21.22;56.38
35676;BME280;21790;42.668;23.298;2022-09-30T00:26:04;94389.00;;;21.24;56.64
35676;BME280;21790;42.668;23.298;2022-09-30T00:28:30;94409.69;;;20.95;57.23
35676;BME280;21790;42.668;23.298;2022-09-30T00:31:04;94394.63;;;21.24;56.40
35676;BME280;21790;42.668;23.298;2022-09-30T00:33:30;94385.53;;;21.18;56.31
35676;BME280;21790;42.668;23.298;2022-09-30T00:35:56;94394.97;;;21.20;56.43
35676;BME280;21790;42.668;23.298;2022-09-30T00:38:21;94392.75;;;21.13;56.36
35676;BME280;21790;42.668;23.298;2022-09-30T00:40:47;94382.44;;;21.21;55.46
35676;BME280;21790;42.668;23.298;2022-09-30T00:43:17;94387.28;;;21.21;56.03
35676;BME280;21790;42.668;23.298;2022-09-30T00:45:54;94385.66;;;21.52;54.66
35676;BME280;21790;42.668;23.298;2022-09-30T00:48:34;94377.56;;;21.48;54.52
35676;BME280;21790;42.668;23.298;2022-09-30T00:51:02;94372.16;;;21.37;54.75
35676;BME280;21790;42.668;23.298;2022-09-30T00:53:58;94375.09;;;21.32;55.06
35676;BME280;21790;42.668;23.298;2022-09-30T00:56:30;94385.06;;;21.01;56.27
35676;BME280;21790;42.668;23.298;2022-09-30T00:59:07;94387.66;;;20.99;56.26
35676;BME280;21790;42.668;23.298;2022-09-30T01:01:39;94383.13;;;21.09;56.19
35676;BME280;21790;42.668;23.298;2022-09-30T01:06:35;94385.06;;;21.01;56.12
35676;BME280;21790;42.668;23.298;2022-09-30T01:09:01;94381.50;;;21.13;55.37
35676;BME280;21790;42.668;23.298;2022-09-30T01:11:27;94383.38;;;21.24;54.89
35676;BME280;21790;42.668;23.298;2022-09-30T01:13:53;94382.03;;;20.99;55.87
35676;BME280;21790;42.668;23.298;2022-09-30T01:16:29;94373.66;;;20.80;56.42
35676;BME280;21790;42.668;23.298;2022-09-30T01:29:08;94391.72;;;20.53;56.91
35676;BME280;21790;42.668;23.298;2022-09-30T01:31:41;94394.41;;;20.77;56.50
35676;BME280;21790;42.668;23.298;2022-09-30T01:34:22;94394.06;;;20.67;56.41
35676;BME280;21790;42.668;23.298;2022-09-30T01:39:43;94385.50;;;20.60;56.52
35676;BME280;21790;42.668;23.298;2022-09-30T01:42:47;94380.06;;;20.49;57.23
35676;BME280;21790;42.668;23.298;2022-09-30T01:45:37;94381.78;;;20.52;56.87
35676;BME280;21790;42.668;23.298;2022-09-30T01:48:24;94394.06;;;20.67;56.03
35676;BME280;21790;42.668;23.298;2022-09-30T01:51:03;94382.94;;;20.75;56.25
35676;BME280;21790;42.668;23.298;2022-09-30T01:56:36;94385.47;;;20.92;55.94
35676;BME280;21790;42.668;23.298;2022-09-30T01:59:22;94388.03;;;20.76;56.18
35676;BME280;21790;42.668;23.298;2022-09-30T02:01:56;94387.56;;;20.59;56.71
35676;BME280;21790;42.668;23.298;2022-09-30T02:04:30;94364.09;;;20.57;56.46
35676;BME280;21790;42.668;23.298;2022-09-30T02:07:02;94388.22;;;20.65;56.44
35676;BME280;21790;42.668;23.298;2022-09-30T02:09:34;94398.28;;;20.74;55.71
35676;BME280;21790;42.668;23.298;2022-09-30T02:12:06;94389.66;;;20.72;55.69
35676;BME280;21790;42.668;23.298;2022-09-30T02:14:38;94399.94;;;20.51;56.49
35676;BME280;21790;42.668;23.298;2022-09-30T02:17:47;94399.47;;;20.46;56.53
35676;BME280;21790;42.668;23.298;2022-09-30T02:20:21;94397.75;;;20.43;56.60
35676;BME280;21790;42.668;23.298;2022-09-30T02:22:51;94398.16;;;20.34;56.67
35676;BME280;21790;42.668;23.298;2022-09-30T02:25:24;94406.53;;;20.53;56.34
35676;BME280;21790;42.668;23.298;2022-09-30T02:27:55;94396.16;;;20.48;56.42
35676;BME280;21790;42.668;23.298;2022-09-30T02:30:22;94407.97;;;20.41;57.04
35676;BME280;21790;42.668;23.298;2022-09-30T02:32:50;94403.09;;;20.60;57.00
35676;BME280;21790;42.668;23.298;2022-09-30T02:35:25;94407.06;;;20.52;57.31
35676;BME280;21790;42.668;23.298;2022-09-30T02:38:00;94406.88;;;20.63;56.86
35676;BME280;21790;42.668;23.298;2022-09-30T02:40:52;94398.94;;;20.67;57.08
35676;BME280;21790;42.668;23.298;2022-09-30T02:43:21;94399.34;;;20.39;57.31
35676;BME280;21790;42.668;23.298;2022-09-30T02:45:51;94406.03;;;20.68;56.56
35676;BME280;21790;42.668;23.298;2022-09-30T02:48:29;94400.66;;;20.70;57.16
35676;BME280;21790;42.668;23.298;2022-09-30T02:51:04;94385.75;;;20.75;56.72
35676;BME280;21790;42.668;23.298;2022-09-30T02:56:43;94398.94;;;20.80;56.12
35676;BME280;21790;42.668;23.298;2022-09-30T02:59:13;94408.13;;;20.49;57.44
35676;BME280;21790;42.668;23.298;2022-09-30T03:01:39;94416.78;;;20.51;56.96
35676;BME280;21790;42.668;23.298;2022-09-30T03:04:09;94416.16;;;20.58;56.97
35676;BME280;21790;42.668;23.298;2022-09-30T03:06:37;94430.75;;;20.56;57.36
35676;BME280;21790;42.668;23.298;2022-09-30T03:09:04;94414.69;;;20.70;56.70
35676;BME280;21790;42.668;23.298;2022-09-30T03:11:33;94433.84;;;20.15;58.55
35676;BME280;21790;42.668;23.298;2022-09-30T03:28:13;94418.09;;;20.81;57.58
35676;BME280;21790;42.668;23.298;2022-09-30T03:30:58;94431.97;;;20.74;57.98
35676;BME280;21790;42.668;23.298;2022-09-30T03:37:01;94433.56;;;20.88;57.74
35676;BME280;21790;42.668;23.298;2022-09-30T03:42:18;94425.84;;;20.57;57.85
35676;BME280;21790;42.668;23.298;2022-09-30T03:45:09;94425.03;;;20.62;57.59
35676;BME280;21790;42.668;23.298;2022-09-30T03:47:43;94435.00;;;20.44;57.80
35676;BME280;21790;42.668;23.298;2022-09-30T03:50:15;94459.06;;;20.39;58.23
35676;BME280;21790;42.668;23.298;2022-09-30T03:52:44;94457.00;;;20.40;57.84
35676;BME280;21790;42.668;23.298;2022-09-30T03:55:13;94464.34;;;20.43;58.35
35676;BME280;21790;42.668;23.298;2022-09-30T03:57:40;94447.66;;;20.51;58.00
35676;BME280;21790;42.668;23.298;2022-09-30T04:00:10;94453.78;;;20.30;58.85
35676;BME280;21790;42.668;23.298;2022-09-30T04:02:36;94447.72;;;20.26;58.71
35676;BME280;21790;42.668;23.298;2022-09-30T04:05:03;94455.16;;;20.42;58.42
35676;BME280;21790;42.668;23.298;2022-09-30T04:07:29;94457.28;;;20.36;58.24
35676;BME280;21790;42.668;23.298;2022-09-30T04:09:55;94439.38;;;20.21;58.92
35676;BME280;21790;42.668;23.298;2022-09-30T04:12:20;94449.41;;;20.35;58.13
35676;BME280;21790;42.668;23.298;2022-09-30T04:14:47;94442.66;;;20.43;57.94
35676;BME280;21790;42.668;23.298;2022-09-30T04:17:13;94447.28;;;20.22;58.71
35676;BME280;21790;42.668;23.298;2022-09-30T04:19:38;94453.56;;;20.28;58.73
35676;BME280;21790;42.668;23.298;2022-09-30T04:22:08;94447.41;;;20.30;58.39
35676;BME280;21790;42.668;23.298;2022-09-30T04:24:34;94447.97;;;20.28;58.61
35676;BME280;21790;42.668;23.298;2022-09-30T04:26:59;94432.72;;;20.42;58.39
35676;BME280;21790;42.668;23.298;2022-09-30T04:29:25;94436.66;;;20.53;58.06
35676;BME280;21790;42.668;23.298;2022-09-30T04:31:51;94463.81;;;20.44;57.84
35676;BME280;21790;42.668;23.298;2022-09-30T04:34:17;94460.09;;;20.18;59.04
35676;BME280;21790;42.668;23.298;2022-09-30T04:36:43;94467.19;;;20.19;58.73
35676;BME280;21790;42.668;23.298;2022-09-30T04:39:09;94471.28;;;19.99;59.25
35676;BME280;21790;42.668;23.298;2022-09-30T04:41:34;94465.44;;;19.97;59.52
35676;BME280;21790;42.668;23.298;2022-09-30T04:44:00;94468.41;;;20.04;59.25
35676;BME280;21790;42.668;23.298;2022-09-30T04:46:31;94464.88;;;20.41;58.36
35676;BME280;21790;42.668;23.298;2022-09-30T04:48:59;94470.13;;;20.51;58.09
35676;BME280;21790;42.668;23.298;2022-09-30T04:51:25;94477.31;;;20.27;58.70
35676;BME280;21790;42.668;23.298;2022-09-30T04:53:50;94490.22;;;20.36;58.79
35676;BME280;21790;42.668;23.298;2022-09-30T04:56:16;94496.31;;;20.16;59.18
35676;BME280;21790;42.668;23.298;2022-09-30T04:58:42;94497.91;;;20.11;59.26
35676;BME280;21790;42.668;23.298;2022-09-30T05:01:16;94503.53;;;20.30;58.96
35676;BME280;21790;42.668;23.298;2022-09-30T05:03:41;94501.69;;;20.14;59.13
35676;BME280;21790;42.668;23.298;2022-09-30T05:06:09;94494.72;;;20.20;58.94
35676;BME280;21790;42.668;23.298;2022-09-30T05:08:35;94498.22;;;20.26;59.02
35676;BME280;21790;42.668;23.298;2022-09-30T05:11:06;94498.75;;;20.06;59.68
35676;BME280;21790;42.668;23.298;2022-09-30T05:13:37;94493.59;;;20.10;59.84
35676;BME280;21790;42.668;23.298;2022-09-30T05:16:06;94506.34;;;20.11;59.52
35676;BME280;21790;42.668;23.298;2022-09-30T05:18:34;94510.03;;;20.19;59.48
35676;BME280;21790;42.668;23.298;2022-09-30T05:21:00;94524.66;;;20.36;59.01
35676;BME280;21790;42.668;23.298;2022-09-30T05:23:27;94525.00;;;20.27;59.45
35676;BME280;21790;42.668;23.298;2022-09-30T05:26:01;94527.91;;;20.40;59.24
35676;BME280;21790;42.668;23.298;2022-09-30T05:28:27;94514.50;;;20.33;59.60
35676;BME280;21790;42.668;23.298;2022-09-30T05:31:03;94515.34;;;20.66;59.93
35676;BME280;21790;42.668;23.298;2022-09-30T05:33:31;94493.78;;;20.55;59.29
35676;BME280;21790;42.668;23.298;2022-09-30T05:36:02;94521.31;;;20.94;58.21
35676;BME280;21790;42.668;23.298;2022-09-30T05:38:29;94534.53;;;20.62;58.66
35676;BME280;21790;42.668;23.298;2022-09-30T05:40:55;94538.59;;;20.98;57.87
35676;BME280;21790;42.668;23.298;2022-09-30T05:43:21;94548.06;;;20.95;57.54
35676;BME280;21790;42.668;23.298;2022-09-30T05:45:56;94540.31;;;21.01;57.51
35676;BME280;21790;42.668;23.298;2022-09-30T05:48:23;94529.09;;;21.20;56.76
35676;BME280;21790;42.668;23.298;2022-09-30T05:50:55;94549.50;;;21.02;57.43
35676;BME280;21790;42.668;23.298;2022-09-30T05:53:20;94537.22;;;21.05;57.28
35676;BME280;21790;42.668;23.298;2022-09-30T05:55:47;94537.28;;;21.18;56.53
35676;BME280;21790;42.668;23.298;2022-09-30T05:58:16;94556.75;;;21.16;57.22
35676;BME280;21790;42.668;23.298;2022-09-30T06:00:45;94556.50;;;21.14;58.02
35676;BME280;21790;42.668;23.298;2022-09-30T06:03:12;94555.94;;;21.34;57.05
35676;BME280;21790;42.668;23.298;2022-09-30T06:05:38;94557.69;;;21.37;56.65
35676;BME280;21790;42.668;23.298;2022-09-30T06:08:04;94557.53;;;21.29;56.48
35676;BME280;21790;42.668;23.298;2022-09-30T06:10:34;94554.50;;;21.27;56.89
35676;BME280;21790;42.668;23.298;2022-09-30T06:13:02;94561.97;;;21.25;56.97
35676;BME280;21790;42.668;23.298;2022-09-30T06:15:29;94553.25;;;20.91;57.71
35676;BME280;21790;42.668;23.298;2022-09-30T06:17:55;94562.84;;;20.82;58.13
35676;BME280;21790;42.668;23.298;2022-09-30T06:20:22;94543.69;;;21.00;57.91
35676;BME280;21790;42.668;23.298;2022-09-30T06:22:48;94568.22;;;20.99;58.27
35676;BME280;21790;42.668;23.298;2022-09-30T06:25:14;94561.09;;;20.61;59.13
35676;BME280;21790;42.668;23.298;2022-09-30T06:27:43;94569.81;;;20.95;58.46
35676;BME280;21790;42.668;23.298;2022-09-30T06:30:10;94569.06;;;20.94;58.07
35676;BME280;21790;42.668;23.298;2022-09-30T06:32:36;94583.25;;;20.83;58.88
35676;BME280;21790;42.668;23.298;2022-09-30T06:35:02;94583.53;;;20.79;59.23
35676;BME280;21790;42.668;23.298;2022-09-30T06:37:28;94572.94;;;20.72;59.05
35676;BME280;21790;42.668;23.298;2022-09-30T06:40:00;94583.25;;;20.45;59.74
35676;BME280;21790;42.668;23.298;2022-09-30T06:42:27;94582.41;;;20.88;58.92
35676;BME280;21790;42.668;23.298;2022-09-30T06:44:53;94592.09;;;21.06;58.85
35676;BME280;21790;42.668;23.298;2022-09-30T06:47:20;94597.28;;;21.20;58.32
35676;BME280;21790;42.668;23.298;2022-09-30T06:49:45;94607.53;;;21.18;58.79
35676;BME280;21790;42.668;23.298;2022-09-30T06:52:11;94610.19;;;21.10;58.51
35676;BME280;21790;42.668;23.298;2022-09-30T06:54:38;94627.06;;;21.29;58.26
35676;BME280;21790;42.668;23.298;2022-09-30T06:57:03;94618.00;;;21.36;57.54
35676;BME280;21790;42.668;23.298;2022-09-30T06:59:29;94632.66;;;21.29;57.83
35676;BME280;21790;42.668;23.298;2022-09-30T07:01:55;94623.53;;;21.42;58.23
35676;BME280;21790;42.668;23.298;2022-09-30T07:04:21;94628.00;;;21.50;57.96
35676;BME280;21790;42.668;23.298;2022-09-30T07:06:47;94629.78;;;21.35;58.38
35676;BME280;21790;42.668;23.298;2022-09-30T07:09:12;94613.81;;;21.43;58.47
35676;BME280;21790;42.668;23.298;2022-09-30T07:11:38;94635.34;;;21.21;58.44
35676;BME280;21790;42.668;23.298;2022-09-30T07:14:08;94627.38;;;21.57;58.42
35676;BME280;21790;42.668;23.298;2022-09-30T07:16:34;94642.44;;;21.60;57.95
35676;BME280;21790;42.668;23.298;2022-09-30T07:19:03;94645.72;;;21.77;57.92
35676;BME280;21790;42.668;23.298;2022-09-30T07:21:31;94628.34;;;21.92;57.31
35676;BME280;21790;42.668;23.298;2022-09-30T07:23:56;94644.34;;;21.84;56.98
35676;BME280;21790;42.668;23.298;2022-09-30T07:26:24;94649.84;;;21.76;57.59
35676;BME280;21790;42.668;23.298;2022-09-30T07:28:52;94648.56;;;21.90;57.81
35676;BME280;21790;42.668;23.298;2022-09-30T07:31:20;94658.09;;;22.19;56.17
35676;BME280;21790;42.668;23.298;2022-09-30T07:33:48;94658.28;;;22.08;55.89
35676;BME280;21790;42.668;23.298;2022-09-30T07:36:19;94659.03;;;22.22;56.30
35676;BME280;21790;42.668;23.298;2022-09-30T07:38:46;94662.84;;;22.37;55.43
35676;BME280;21790;42.668;23.298;2022-09-30T07:41:19;94661.88;;;22.48;55.07
35676;BME280;21790;42.668;23.298;2022-09-30T07:43:48;94641.31;;;22.92;54.75
35676;BME280;21790;42.668;23.298;2022-09-30T07:46:27;94641.81;;;23.17;54.73
35676;BME280;21790;42.668;23.298;2022-09-30T07:48:55;94636.69;;;23.29;54.23
35676;BME280;21790;42.668;23.298;2022-09-30T07:51:33;94646.78;;;23.58;53.81
35676;BME280;21790;42.668;23.298;2022-09-30T07:54:21;94640.59;;;23.81;53.38
35676;BME280;21790;42.668;23.298;2022-09-30T07:56:55;94647.75;;;24.02;52.57
35676;BME280;21790;42.668;23.298;2022-09-30T07:59:21;94642.13;;;24.23;52.67
35676;BME280;21790;42.668;23.298;2022-09-30T08:01:47;94653.41;;;24.23;51.99
35676;BME280;21790;42.668;23.298;2022-09-30T08:04:13;94657.25;;;24.33;50.99
35676;BME280;21790;42.668;23.298;2022-09-30T08:06:44;94662.75;;;24.67;50.55
35676;BME280;21790;42.668;23.298;2022-09-30T08:09:12;94668.47;;;24.75;49.24
35676;BME280;21790;42.668;23.298;2022-09-30T08:11:42;94669.22;;;25.04;49.63
35676;BME280;21790;42.668;23.298;2022-09-30T08:14:21;94662.00;;;25.31;48.56
35676;BME280;21790;42.668;23.298;2022-09-30T08:17:05;94678.94;;;25.23;48.10
35676;BME280;21790;42.668;23.298;2022-09-30T08:19:30;94673.66;;;25.27;47.97
35676;BME280;21790;42.668;23.298;2022-09-30T08:21:57;94676.03;;;25.52;47.52
35676;BME280;21790;42.668;23.298;2022-09-30T08:24:24;94675.25;;;25.51;47.34
35676;BME280;21790;42.668;23.298;2022-09-30T08:26:50;94676.09;;;25.67;48.11
35676;BME280;21790;42.668;23.298;2022-09-30T08:29:16;94683.69;;;25.87;47.43
35676;BME280;21790;42.668;23.298;2022-09-30T08:31:41;94676.75;;;26.26;46.56
35676;BME280;21790;42.668;23.298;2022-09-30T08:34:07;94686.41;;;26.31;45.99
35676;BME280;21790;42.668;23.298;2022-09-30T08:36:35;94686.78;;;26.42;46.53
35676;BME280;21790;42.668;23.298;2022-09-30T08:39:00;94686.78;;;26.50;46.24
35676;BME280;21790;42.668;23.298;2022-09-30T08:55:24;94696.09;;;27.28;44.04
35676;BME280;21790;42.668;23.298;2022-09-30T08:57:52;94693.03;;;27.41;43.84
35676;BME280;21790;42.668;23.298;2022-09-30T09:00:19;94698.69;;;27.49;44.65
35676;BME280;21790;42.668;23.298;2022-09-30T09:02:56;94690.13;;;27.64;43.27
35676;BME280;21790;42.668;23.298;2022-09-30T09:05:39;94684.38;;;27.79;42.72
35676;BME280;21790;42.668;23.298;2022-09-30T09:10:42;94696.13;;;28.08;43.02
35676;BME280;21790;42.668;23.298;2022-09-30T09:16:18;94699.47;;;28.22;41.72
35676;BME280;21790;42.668;23.298;2022-09-30T09:24:16;94705.16;;;28.22;41.36
35676;BME280;21790;42.668;23.298;2022-09-30T09:26:45;94701.31;;;28.27;42.05
35676;BME280;21790;42.668;23.298;2022-09-30T09:29:44;94709.53;;;28.65;41.63
35676;BME280;21790;42.668;23.298;2022-09-30T09:32:15;94704.09;;;28.59;41.14
35676;BME280;21790;42.668;23.298;2022-09-30T09:34:42;94696.31;;;28.60;40.04
35676;BME280;21790;42.668;23.298;2022-09-30T09:47:49;94698.53;;;29.11;39.77
35676;BME280;21790;42.668;23.298;2022-09-30T09:50:20;94690.16;;;29.30;40.24
35676;BME280;21790;42.668;23.298;2022-09-30T09:53:09;94693.19;;;29.32;41.13
35676;BME280;21790;42.668;23.298;2022-09-30T09:55:38;94697.44;;;29.24;39.47
35676;BME280;21790;42.668;23.298;2022-09-30T09:58:12;94694.69;;;29.50;39.43
35676;BME280;21790;42.668;23.298;2022-09-30T10:00:44;94698.19;;;29.59;38.13
35676;BME280;21790;42.668;23.298;2022-09-30T10:03:23;94701.78;;;29.76;38.58
35676;BME280;21790;42.668;23.298;2022-09-30T10:06:08;94694.22;;;29.88;39.11
35676;BME280;21790;42.668;23.298;2022-09-30T10:08:54;94710.31;;;30.20;38.66
35676;BME280;21790;42.668;23.298;2022-09-30T10:11:23;94694.97;;;30.43;37.30
35676;BME280;21790;42.668;23.298;2022-09-30T10:13:56;94696.09;;;30.57;37.29
35676;BME280;21790;42.668;23.298;2022-09-30T10:16:33;94697.28;;;30.54;36.86
35676;BME280;21790;42.668;23.298;2022-09-30T10:19:00;94688.13;;;30.28;34.43
35676;BME280;21790;42.668;23.298;2022-09-30T10:21:28;94689.66;;;30.29;34.71
35676;BME280;21790;42.668;23.298;2022-09-30T10:23:54;94681.25;;;30.31;34.06
35676;BME280;21790;42.668;23.298;2022-09-30T10:26:24;94692.88;;;30.43;33.70
35676;BME280;21790;42.668;23.298;2022-09-30T10:28:53;94682.09;;;30.51;33.62
35676;BME280;21790;42.668;23.298;2022-09-30T10:31:41;94683.94;;;30.66;32.26
35676;BME280;21790;42.668;23.298;2022-09-30T10:34:24;94682.03;;;30.78;32.53
35676;BME280;21790;42.668;23.298;2022-09-30T10:36:51;94685.22;;;30.82;34.87
35676;BME280;21790;42.668;23.298;2022-09-30T10:39:22;94679.34;;;30.80;32.29
35676;BME280;21790;42.668;23.298;2022-09-30T10:44:43;94677.72;;;30.96;31.67
35676;BME280;21790;42.668;23.298;2022-09-30T10:47:14;94687.25;;;31.08;30.97
35676;BME280;21790;42.668;23.298;2022-09-30T10:49:48;94680.56;;;30.96;30.68
35676;BME280;21790;42.668;23.298;2022-09-30T10:52:18;94686.41;;;30.79;30.98
35676;BME280;21790;42.668;23.298;2022-09-30T10:57:28;94678.06;;;30.54;30.38
35676;BME280;21790;42.668;23.298;2022-09-30T11:00:03;94670.47;;;30.40;31.55
35676;BME280;21790;42.668;23.298;2022-09-30T11:02:33;94683.06;;;30.37;30.94
35676;BME280;21790;42.668;23.298;2022-09-30T11:05:21;94692.47;;;30.56;30.27
35676;BME280;21790;42.668;23.298;2022-09-30T11:08:09;94686.38;;;30.33;31.13
35676;BME280;21790;42.668;23.298;2022-09-30T11:13:21;94690.25;;;30.55;31.79
35676;BME280;21790;42.668;23.298;2022-09-30T11:16:08;94671.75;;;30.56;29.76
35676;BME280;21790;42.668;23.298;2022-09-30T11:21:53;94686.56;;;30.91;32.44
35676;BME280;21790;42.668;23.298;2022-09-30T11:24:30;94691.44;;;30.25;31.16
35676;BME280;21790;42.668;23.298;2022-09-30T11:40:36;94694.03;;;30.04;29.53
35676;BME280;21790;42.668;23.298;2022-09-30T11:46:01;94693.38;;;29.96;29.20
35676;BME280;21790;42.668;23.298;2022-09-30T11:48:51;94695.84;;;29.47;29.70
35676;BME280;21790;42.668;23.298;2022-09-30T11:59:29;94687.66;;;29.96;31.67
35676;BME280;21790;42.668;23.298;2022-09-30T12:02:00;94688.50;;;29.62;30.38
35676;BME280;21790;42.668;23.298;2022-09-30T12:04:41;94690.66;;;29.53;30.04
35676;BME280;21790;42.668;23.298;2022-09-30T12:07:15;94703.03;;;28.97;30.45
35676;BME280;21790;42.668;23.298;2022-09-30T12:09:46;94701.75;;;28.73;31.00
35676;BME280;21790;42.668;23.298;2022-09-30T12:12:16;94712.34;;;28.48;31.52
35676;BME280;21790;42.668;23.298;2022-09-30T12:14:56;94704.41;;;28.46;31.75
35676;BME280;21790;42.668;23.298;2022-09-30T12:19:54;94701.38;;;28.44;31.73
35676;BME280;21790;42.668;23.298;2022-09-30T12:22:31;94698.19;;;28.90;31.83
35676;BME280;21790;42.668;23.298;2022-09-30T12:25:01;94701.88;;;29.17;33.20
35676;BME280;21790;42.668;23.298;2022-09-30T12:30:27;94708.94;;;28.74;31.34
35676;BME280;21790;42.668;23.298;2022-09-30T12:33:16;94708.06;;;29.23;32.09
35676;BME280;21790;42.668;23.298;2022-09-30T12:41:09;94701.53;;;29.30;32.04
35676;BME280;21790;42.668;23.298;2022-09-30T12:48:59;94716.41;;;28.87;30.51
35676;BME280;21790;42.668;23.298;2022-09-30T12:51:31;94712.06;;;29.03;30.62
35676;BME280;21790;42.668;23.298;2022-09-30T12:54:14;94697.84;;;29.20;30.89
35676;BME280;21790;42.668;23.298;2022-09-30T12:56:43;94706.00;;;29.41;31.52
35676;BME280;21790;42.668;23.298;2022-09-30T12:59:09;94715.97;;;29.32;32.57
35676;BME280;21790;42.668;23.298;2022-09-30T13:01:36;94720.22;;;29.58;32.05
35676;BME280;21790;42.668;23.298;2022-09-30T13:14:39;94706.47;;;29.64;31.43
35676;BME280;21790;42.668;23.298;2022-09-30T13:27:51;94713.19;;;29.42;30.53
35676;BME280;21790;42.668;23.298;2022-09-30T13:35:31;94721.66;;;29.67;31.17
35676;BME280;21790;42.668;23.298;2022-09-30T13:38:19;94716.44;;;29.21;29.64
35676;BME280;21790;42.668;23.298;2022-09-30T13:40:50;94721.69;;;28.65;30.07
35676;BME280;21790;42.668;23.298;2022-09-30T13:43:24;94722.56;;;29.18;30.07
35676;BME280;21790;42.668;23.298;2022-09-30T13:45:53;94725.78;;;28.97;30.40
35676;BME280;21790;42.668;23.298;2022-09-30T13:48:33;94725.19;;;28.98;30.58
35676;BME280;21790;42.668;23.298;2022-09-30T13:51:04;94727.44;;;28.83;30.63
35676;BME280;21790;42.668;23.298;2022-09-30T13:53:40;94731.03;;;28.58;30.09
35676;BME280;21790;42.668;23.298;2022-09-30T13:56:24;94726.09;;;28.84;28.97
35676;BME280;21790;42.668;23.298;2022-09-30T14:15:31;94727.41;;;29.07;30.26
35676;BME280;21790;42.668;23.298;2022-09-30T14:24:02;94739.69;;;28.68;30.15
35676;BME280;21790;42.668;23.298;2022-09-30T14:31:54;94748.53;;;28.97;30.89
35676;BME280;21790;42.668;23.298;2022-09-30T14:34:21;94739.28;;;28.96;30.68
35676;BME280;21790;42.668;23.298;2022-09-30T14:36:50;94754.28;;;28.64;30.73
35676;BME280;21790;42.668;23.298;2022-09-30T14:39:25;94746.69;;;28.75;30.79
35676;BME280;21790;42.668;23.298;2022-09-30T14:41:58;94756.91;;;28.45;30.25
35676;BME280;21790;42.668;23.298;2022-09-30T14:44:32;94755.09;;;28.33;30.81
35676;BME280;21790;42.668;23.298;2022-09-30T14:47:01;94752.28;;;28.57;31.04
35676;BME280;21790;42.668;23.298;2022-09-30T14:49:30;94749.50;;;28.75;31.08
35676;BME280;21790;42.668;23.298;2022-09-30T14:52:01;94767.25;;;28.83;31.05
35676;BME280;21790;42.668;23.298;2022-09-30T14:54:29;94759.72;;;28.78;31.32
35676;BME280;21790;42.668;23.298;2022-09-30T14:57:00;94761.66;;;28.92;31.11
35676;BME280;21790;42.668;23.298;2022-09-30T14:59:31;94765.50;;;28.87;31.62
35676;BME280;21790;42.668;23.298;2022-09-30T15:02:02;94764.91;;;28.64;30.92
35676;BME280;21790;42.668;23.298;2022-09-30T15:04:32;94770.13;;;28.50;30.96
35676;BME280;21790;42.668;23.298;2022-09-30T15:07:00;94768.97;;;28.21;31.43
35676;BME280;21790;42.668;23.298;2022-09-30T15:09:37;94765.66;;;28.40;31.63
35676;BME280;21790;42.668;23.298;2022-09-30T15:12:10;94772.00;;;28.23;31.34
35676;BME280;21790;42.668;23.298;2022-09-30T15:14:49;94761.59;;;28.25;31.06
35676;BME280;21790;42.668;23.298;2022-09-30T15:17:38;94756.69;;;28.51;31.00
35676;BME280;21790;42.668;23.298;2022-09-30T15:22:48;94772.56;;;28.29;31.31
35676;BME280;21790;42.668;23.298;2022-09-30T15:25:15;94780.06;;;28.42;31.50
35676;BME280;21790;42.668;23.298;2022-09-30T15:27:42;94788.38;;;28.47;31.68
35676;BME280;21790;42.668;23.298;2022-09-30T15:32:41;94798.84;;;27.89;32.87
35676;BME280;21790;42.668;23.298;2022-09-30T15:35:12;94790.56;;;27.84;33.05
35676;BME280;21790;42.668;23.298;2022-09-30T15:37:39;94805.34;;;27.75;33.25
35676;BME280;21790;42.668;23.298;2022-09-30T15:40:16;94812.50;;;27.83;33.32
35676;BME280;21790;42.668;23.298;2022-09-30T15:43:06;94819.06;;;28.01;33.22
35676;BME280;21790;42.668;23.298;2022-09-30T15:45:34;94818.38;;;27.85;33.53
35676;BME280;21790;42.668;23.298;2022-09-30T15:48:04;94817.50;;;27.45;34.33
35676;BME280;21790;42.668;23.298;2022-09-30T15:55:41;94833.66;;;27.20;34.76
35676;BME280;21790;42.668;23.298;2022-09-30T15:58:34;94835.66;;;27.49;34.84
35676;BME280;21790;42.668;23.298;2022-09-30T16:03:38;94840.66;;;27.11;35.20
35676;BME280;21790;42.668;23.298;2022-09-30T16:06:12;94845.75;;;26.97;35.75
35676;BME280;21790;42.668;23.298;2022-09-30T16:08:51;94847.84;;;27.04;35.25
35676;BME280;21790;42.668;23.298;2022-09-30T16:11:30;94851.81;;;26.94;34.97
35676;BME280;21790;42.668;23.298;2022-09-30T16:13:57;94853.09;;;26.85;35.14
35676;BME280;21790;42.668;23.298;2022-09-30T16:16:25;94858.19;;;26.87;35.36
35676;BME280;21790;42.668;23.298;2022-09-30T16:18:55;94861.81;;;27.02;35.15
35676;BME280;21790;42.668;23.298;2022-09-30T16:26:58;94865.03;;;27.06;35.86
35676;BME280;21790;42.668;23.298;2022-09-30T16:29:25;94865.22;;;27.01;35.87
35676;BME280;21790;42.668;23.298;2022-09-30T16:31:53;94873.94;;;27.11;35.45
35676;BME280;21790;42.668;23.298;2022-09-30T16:34:24;94869.78;;;27.04;35.21